sensor_id;sensor_type;location;lat;lon;timestamp;P1;durP1;ratioP1;P2;durP2;ratioP2
11488;SDS011;5801;50.804;12.638;2022-08-01T00:02:27;3.50;;;3.20;;
11488;SDS011;5801;50.804;12.638;2022-08-01T00:04:54;3.22;;;2.90;;
11488;SDS011;5801;50.804;12.638;2022-08-01T00:07:20;5.22;;;3.58;;
11488;SDS011;5801;50.804;12.638;2022-08-01T00:09:46;3.90;;;2.92;;
11488;SDS011;5801;50.804;12.638;2022-08-01T00:12:11;3.47;;;3.17;;
11488;SDS011;5801;50.804;12.638;2022-08-01T00:14:37;5.75;;;3.40;;
11488;SDS011;5801;50.804;12.638;2022-08-01T00:17:03;4.70;;;3.28;;
11488;SDS011;5801;50.804;12.638;2022-08-01T00:19:28;4.35;;;3.40;;
11488;SDS011;5801;50.804;12.638;2022-08-01T00:21:54;6.68;;;3.45;;
11488;SDS011;5801;50.804;12.638;2022-08-01T00:24:20;4.97;;;3.50;;
11488;SDS011;5801;50.804;12.638;2022-08-01T00:26:46;4.18;;;3.78;;
11488;SDS011;5801;50.804;12.638;2022-08-01T00:29:11;7.43;;;3.72;;
11488;SDS011;5801;50.804;12.638;2022-08-01T00:31:37;3.38;;;2.95;;
11488;SDS011;5801;50.804;12.638;2022-08-01T00:34:03;8.52;;;3.10;;
11488;SDS011;5801;50.804;12.638;2022-08-01T00:36:29;3.83;;;3.30;;
11488;SDS011;5801;50.804;12.638;2022-08-01T00:38:54;3.63;;;3.30;;
11488;SDS011;5801;50.804;12.638;2022-08-01T00:41:20;6.85;;;3.58;;
11488;SDS011;5801;50.804;12.638;2022-08-01T00:43:46;3.33;;;3.00;;
11488;SDS011;5801;50.804;12.638;2022-08-01T00:46:12;4.20;;;3.33;;
11488;SDS011;5801;50.804;12.638;2022-08-01T00:48:37;6.47;;;3.47;;
11488;SDS011;5801;50.804;12.638;2022-08-01T00:51:03;3.85;;;3.53;;
11488;SDS011;5801;50.804;12.638;2022-08-01T00:53:30;4.50;;;3.58;;
11488;SDS011;5801;50.804;12.638;2022-08-01T00:55:56;4.47;;;3.55;;
11488;SDS011;5801;50.804;12.638;2022-08-01T00:58:21;8.07;;;4.28;;
11488;SDS011;5801;50.804;12.638;2022-08-01T01:00:47;3.75;;;3.35;;
11488;SDS011;5801;50.804;12.638;2022-08-01T01:03:14;4.75;;;2.97;;
11488;SDS011;5801;50.804;12.638;2022-08-01T01:05:43;4.45;;;3.50;;
11488;SDS011;5801;50.804;12.638;2022-08-01T01:08:32;5.10;;;3.70;;
11488;SDS011;5801;50.804;12.638;2022-08-01T01:11:01;10.75;;;3.63;;
11488;SDS011;5801;50.804;12.638;2022-08-01T01:16:08;3.88;;;3.47;;
11488;SDS011;5801;50.804;12.638;2022-08-01T01:18:37;3.47;;;3.17;;
11488;SDS011;5801;50.804;12.638;2022-08-01T01:26:43;5.13;;;4.03;;
11488;SDS011;5801;50.804;12.638;2022-08-01T01:34:49;5.03;;;3.22;;
11488;SDS011;5801;50.804;12.638;2022-08-01T01:37:17;5.45;;;3.85;;
11488;SDS011;5801;50.804;12.638;2022-08-01T01:39:44;3.85;;;3.42;;
11488;SDS011;5801;50.804;12.638;2022-08-01T01:42:12;5.70;;;4.30;;
11488;SDS011;5801;50.804;12.638;2022-08-01T01:44:38;3.92;;;3.47;;
11488;SDS011;5801;50.804;12.638;2022-08-01T01:47:04;3.60;;;3.30;;
11488;SDS011;5801;50.804;12.638;2022-08-01T01:49:31;5.25;;;3.28;;
11488;SDS011;5801;50.804;12.638;2022-08-01T01:51:57;4.30;;;3.78;;
11488;SDS011;5801;50.804;12.638;2022-08-01T01:54:28;3.97;;;3.25;;
11488;SDS011;5801;50.804;12.638;2022-08-01T01:56:56;4.40;;;3.58;;
11488;SDS011;5801;50.804;12.638;2022-08-01T01:59:24;4.15;;;3.75;;
11488;SDS011;5801;50.804;12.638;2022-08-01T02:01:51;8.75;;;3.40;;
11488;SDS011;5801;50.804;12.638;2022-08-01T02:04:19;4.55;;;3.50;;
11488;SDS011;5801;50.804;12.638;2022-08-01T02:06:46;4.18;;;3.33;;
11488;SDS011;5801;50.804;12.638;2022-08-01T02:09:14;5.25;;;3.65;;
11488;SDS011;5801;50.804;12.638;2022-08-01T02:11:42;5.18;;;3.70;;
11488;SDS011;5801;50.804;12.638;2022-08-01T02:14:08;5.22;;;3.40;;
11488;SDS011;5801;50.804;12.638;2022-08-01T02:16:35;3.67;;;3.38;;
11488;SDS011;5801;50.804;12.638;2022-08-01T02:19:02;8.30;;;3.35;;
11488;SDS011;5801;50.804;12.638;2022-08-01T02:21:37;4.13;;;3.60;;
11488;SDS011;5801;50.804;12.638;2022-08-01T02:24:16;6.85;;;4.10;;
11488;SDS011;5801;50.804;12.638;2022-08-01T02:26:46;3.90;;;3.60;;
11488;SDS011;5801;50.804;12.638;2022-08-01T02:29:14;5.45;;;3.88;;
11488;SDS011;5801;50.804;12.638;2022-08-01T02:31:46;4.13;;;3.70;;
11488;SDS011;5801;50.804;12.638;2022-08-01T02:34:13;7.15;;;3.90;;
11488;SDS011;5801;50.804;12.638;2022-08-01T02:36:42;3.97;;;3.50;;
11488;SDS011;5801;50.804;12.638;2022-08-01T02:39:11;4.05;;;3.60;;
11488;SDS011;5801;50.804;12.638;2022-08-01T02:41:39;5.82;;;3.60;;
11488;SDS011;5801;50.804;12.638;2022-08-01T02:44:07;4.68;;;3.60;;
11488;SDS011;5801;50.804;12.638;2022-08-01T02:46:36;4.82;;;4.13;;
11488;SDS011;5801;50.804;12.638;2022-08-01T02:49:03;4.13;;;3.72;;
11488;SDS011;5801;50.804;12.638;2022-08-01T02:51:29;4.38;;;3.97;;
11488;SDS011;5801;50.804;12.638;2022-08-01T02:53:56;4.50;;;3.88;;
11488;SDS011;5801;50.804;12.638;2022-08-01T02:56:23;4.15;;;3.63;;
11488;SDS011;5801;50.804;12.638;2022-08-01T02:58:59;4.35;;;3.95;;
11488;SDS011;5801;50.804;12.638;2022-08-01T03:01:25;4.38;;;3.67;;
11488;SDS011;5801;50.804;12.638;2022-08-01T03:03:51;4.32;;;3.92;;
11488;SDS011;5801;50.804;12.638;2022-08-01T03:06:17;4.60;;;4.13;;
11488;SDS011;5801;50.804;12.638;2022-08-01T03:08:43;4.10;;;3.70;;
11488;SDS011;5801;50.804;12.638;2022-08-01T03:11:11;6.40;;;3.90;;
11488;SDS011;5801;50.804;12.638;2022-08-01T03:13:38;4.43;;;3.80;;
11488;SDS011;5801;50.804;12.638;2022-08-01T03:16:06;4.85;;;4.05;;
11488;SDS011;5801;50.804;12.638;2022-08-01T03:18:33;4.80;;;3.80;;
11488;SDS011;5801;50.804;12.638;2022-08-01T03:21:01;5.07;;;4.57;;
11488;SDS011;5801;50.804;12.638;2022-08-01T03:23:28;5.93;;;4.15;;
11488;SDS011;5801;50.804;12.638;2022-08-01T03:25:56;5.30;;;4.57;;
11488;SDS011;5801;50.804;12.638;2022-08-01T03:28:22;4.82;;;4.20;;
11488;SDS011;5801;50.804;12.638;2022-08-01T03:30:49;7.47;;;4.22;;
11488;SDS011;5801;50.804;12.638;2022-08-01T03:33:15;5.88;;;4.15;;
11488;SDS011;5801;50.804;12.638;2022-08-01T03:35:44;4.15;;;3.75;;
11488;SDS011;5801;50.804;12.638;2022-08-01T03:38:11;5.22;;;4.53;;
11488;SDS011;5801;50.804;12.638;2022-08-01T03:40:49;5.97;;;4.70;;
11488;SDS011;5801;50.804;12.638;2022-08-01T03:43:22;5.65;;;4.38;;
11488;SDS011;5801;50.804;12.638;2022-08-01T03:45:49;8.02;;;4.07;;
11488;SDS011;5801;50.804;12.638;2022-08-01T03:48:17;4.88;;;4.35;;
11488;SDS011;5801;50.804;12.638;2022-08-01T03:50:47;6.68;;;4.45;;
11488;SDS011;5801;50.804;12.638;2022-08-01T03:53:14;5.40;;;4.68;;
11488;SDS011;5801;50.804;12.638;2022-08-01T03:55:41;5.40;;;4.53;;
11488;SDS011;5801;50.804;12.638;2022-08-01T03:58:08;5.03;;;4.53;;
11488;SDS011;5801;50.804;12.638;2022-08-01T04:00:35;7.55;;;4.75;;
11488;SDS011;5801;50.804;12.638;2022-08-01T04:03:03;5.32;;;4.28;;
11488;SDS011;5801;50.804;12.638;2022-08-01T04:05:29;5.32;;;4.72;;
11488;SDS011;5801;50.804;12.638;2022-08-01T04:07:56;10.23;;;5.10;;
11488;SDS011;5801;50.804;12.638;2022-08-01T04:10:24;5.22;;;4.72;;
11488;SDS011;5801;50.804;12.638;2022-08-01T04:12:50;5.85;;;4.78;;
11488;SDS011;5801;50.804;12.638;2022-08-01T04:15:16;4.93;;;4.43;;
11488;SDS011;5801;50.804;12.638;2022-08-01T04:17:42;5.20;;;4.55;;
11488;SDS011;5801;50.804;12.638;2022-08-01T04:20:08;4.88;;;4.40;;
11488;SDS011;5801;50.804;12.638;2022-08-01T04:22:35;5.07;;;4.50;;
11488;SDS011;5801;50.804;12.638;2022-08-01T04:25:01;5.75;;;4.47;;
11488;SDS011;5801;50.804;12.638;2022-08-01T04:27:32;4.97;;;4.40;;
11488;SDS011;5801;50.804;12.638;2022-08-01T04:30:01;6.18;;;4.72;;
11488;SDS011;5801;50.804;12.638;2022-08-01T04:32:28;7.07;;;4.75;;
11488;SDS011;5801;50.804;12.638;2022-08-01T04:34:56;4.57;;;4.03;;
11488;SDS011;5801;50.804;12.638;2022-08-01T04:37:23;4.60;;;4.18;;
11488;SDS011;5801;50.804;12.638;2022-08-01T04:39:50;5.13;;;4.63;;
11488;SDS011;5801;50.804;12.638;2022-08-01T04:42:17;5.18;;;4.38;;
11488;SDS011;5801;50.804;12.638;2022-08-01T04:44:43;6.88;;;3.97;;
11488;SDS011;5801;50.804;12.638;2022-08-01T04:47:09;4.25;;;3.85;;
11488;SDS011;5801;50.804;12.638;2022-08-01T04:49:35;5.35;;;4.85;;
11488;SDS011;5801;50.804;12.638;2022-08-01T04:52:02;4.18;;;3.78;;
11488;SDS011;5801;50.804;12.638;2022-08-01T04:54:28;5.15;;;4.53;;
11488;SDS011;5801;50.804;12.638;2022-08-01T04:56:55;6.07;;;4.25;;
11488;SDS011;5801;50.804;12.638;2022-08-01T04:59:24;4.95;;;4.55;;
11488;SDS011;5801;50.804;12.638;2022-08-01T05:02:18;4.55;;;4.15;;
11488;SDS011;5801;50.804;12.638;2022-08-01T05:04:45;4.75;;;4.25;;
11488;SDS011;5801;50.804;12.638;2022-08-01T05:07:11;5.38;;;4.43;;
11488;SDS011;5801;50.804;12.638;2022-08-01T05:09:39;4.82;;;4.13;;
11488;SDS011;5801;50.804;12.638;2022-08-01T05:12:06;5.20;;;4.65;;
11488;SDS011;5801;50.804;12.638;2022-08-01T05:14:32;7.28;;;4.78;;
11488;SDS011;5801;50.804;12.638;2022-08-01T05:16:59;5.65;;;4.50;;
11488;SDS011;5801;50.804;12.638;2022-08-01T05:19:27;5.78;;;4.75;;
11488;SDS011;5801;50.804;12.638;2022-08-01T05:21:53;10.25;;;4.53;;
11488;SDS011;5801;50.804;12.638;2022-08-01T05:24:19;6.38;;;4.22;;
11488;SDS011;5801;50.804;12.638;2022-08-01T05:26:45;5.75;;;4.38;;
11488;SDS011;5801;50.804;12.638;2022-08-01T05:29:11;5.13;;;4.47;;
11488;SDS011;5801;50.804;12.638;2022-08-01T05:31:37;6.97;;;4.43;;
11488;SDS011;5801;50.804;12.638;2022-08-01T05:34:03;6.00;;;4.85;;
11488;SDS011;5801;50.804;12.638;2022-08-01T05:36:29;4.88;;;4.38;;
11488;SDS011;5801;50.804;12.638;2022-08-01T05:38:54;7.72;;;4.82;;
11488;SDS011;5801;50.804;12.638;2022-08-01T05:41:20;4.38;;;3.88;;
11488;SDS011;5801;50.804;12.638;2022-08-01T05:43:46;5.35;;;4.40;;
11488;SDS011;5801;50.804;12.638;2022-08-01T05:46:12;5.95;;;4.63;;
11488;SDS011;5801;50.804;12.638;2022-08-01T05:48:38;4.95;;;3.97;;
11488;SDS011;5801;50.804;12.638;2022-08-01T05:51:04;4.93;;;4.43;;
11488;SDS011;5801;50.804;12.638;2022-08-01T05:53:30;6.78;;;3.55;;
11488;SDS011;5801;50.804;12.638;2022-08-01T05:55:59;4.97;;;2.92;;
11488;SDS011;5801;50.804;12.638;2022-08-01T05:58:25;3.58;;;3.00;;
11488;SDS011;5801;50.804;12.638;2022-08-01T06:00:51;6.07;;;2.80;;
11488;SDS011;5801;50.804;12.638;2022-08-01T06:03:17;4.55;;;3.42;;
11488;SDS011;5801;50.804;12.638;2022-08-01T06:05:43;3.40;;;3.10;;
11488;SDS011;5801;50.804;12.638;2022-08-01T06:08:08;4.07;;;2.72;;
11488;SDS011;5801;50.804;12.638;2022-08-01T06:10:34;3.03;;;2.45;;
11488;SDS011;5801;50.804;12.638;2022-08-01T06:13:00;4.90;;;2.60;;
11488;SDS011;5801;50.804;12.638;2022-08-01T06:15:28;3.10;;;2.22;;
11488;SDS011;5801;50.804;12.638;2022-08-01T06:17:54;2.58;;;2.22;;
11488;SDS011;5801;50.804;12.638;2022-08-01T06:20:20;2.85;;;2.45;;
11488;SDS011;5801;50.804;12.638;2022-08-01T06:22:45;2.22;;;1.95;;
11488;SDS011;5801;50.804;12.638;2022-08-01T06:25:11;1.83;;;1.73;;
11488;SDS011;5801;50.804;12.638;2022-08-01T06:27:37;5.10;;;1.80;;
11488;SDS011;5801;50.804;12.638;2022-08-01T06:30:03;2.25;;;2.05;;
11488;SDS011;5801;50.804;12.638;2022-08-01T06:32:29;4.03;;;2.22;;
11488;SDS011;5801;50.804;12.638;2022-08-01T06:34:56;8.48;;;1.83;;
11488;SDS011;5801;50.804;12.638;2022-08-01T06:37:21;2.30;;;2.10;;
11488;SDS011;5801;50.804;12.638;2022-08-01T06:39:47;1.73;;;1.60;;
11488;SDS011;5801;50.804;12.638;2022-08-01T06:42:14;2.65;;;2.25;;
11488;SDS011;5801;50.804;12.638;2022-08-01T06:44:40;2.70;;;1.88;;
11488;SDS011;5801;50.804;12.638;2022-08-01T06:47:06;1.80;;;1.70;;
11488;SDS011;5801;50.804;12.638;2022-08-01T06:49:32;1.63;;;1.52;;
11488;SDS011;5801;50.804;12.638;2022-08-01T06:51:58;1.75;;;1.55;;
11488;SDS011;5801;50.804;12.638;2022-08-01T06:54:24;1.80;;;1.70;;
11488;SDS011;5801;50.804;12.638;2022-08-01T06:56:49;2.47;;;2.00;;
11488;SDS011;5801;50.804;12.638;2022-08-01T06:59:15;1.77;;;1.67;;
11488;SDS011;5801;50.804;12.638;2022-08-01T07:01:41;4.20;;;1.58;;
11488;SDS011;5801;50.804;12.638;2022-08-01T07:04:06;3.50;;;1.85;;
11488;SDS011;5801;50.804;12.638;2022-08-01T07:06:32;1.92;;;1.63;;
11488;SDS011;5801;50.804;12.638;2022-08-01T07:08:58;1.65;;;1.55;;
11488;SDS011;5801;50.804;12.638;2022-08-01T07:11:25;2.00;;;1.90;;
11488;SDS011;5801;50.804;12.638;2022-08-01T07:13:51;1.90;;;1.58;;
11488;SDS011;5801;50.804;12.638;2022-08-01T07:16:17;1.95;;;1.73;;
11488;SDS011;5801;50.804;12.638;2022-08-01T07:18:43;3.75;;;1.90;;
11488;SDS011;5801;50.804;12.638;2022-08-01T07:21:09;7.13;;;1.85;;
11488;SDS011;5801;50.804;12.638;2022-08-01T07:23:35;2.35;;;2.13;;
11488;SDS011;5801;50.804;12.638;2022-08-01T07:26:02;4.80;;;2.10;;
11488;SDS011;5801;50.804;12.638;2022-08-01T07:28:29;2.20;;;1.98;;
11488;SDS011;5801;50.804;12.638;2022-08-01T07:30:55;5.68;;;2.10;;
11488;SDS011;5801;50.804;12.638;2022-08-01T07:33:21;2.60;;;1.90;;
11488;SDS011;5801;50.804;12.638;2022-08-01T07:35:47;6.90;;;2.67;;
11488;SDS011;5801;50.804;12.638;2022-08-01T07:38:13;2.90;;;2.53;;
11488;SDS011;5801;50.804;12.638;2022-08-01T07:40:41;2.35;;;2.15;;
11488;SDS011;5801;50.804;12.638;2022-08-01T07:43:07;2.20;;;2.00;;
11488;SDS011;5801;50.804;12.638;2022-08-01T07:45:33;2.92;;;2.35;;
11488;SDS011;5801;50.804;12.638;2022-08-01T07:48:03;3.13;;;2.20;;
11488;SDS011;5801;50.804;12.638;2022-08-01T07:50:29;2.53;;;2.33;;
11488;SDS011;5801;50.804;12.638;2022-08-01T07:52:55;2.83;;;2.22;;
11488;SDS011;5801;50.804;12.638;2022-08-01T07:55:21;2.63;;;2.40;;
11488;SDS011;5801;50.804;12.638;2022-08-01T07:57:47;2.97;;;2.60;;
11488;SDS011;5801;50.804;12.638;2022-08-01T08:00:13;4.22;;;2.85;;
11488;SDS011;5801;50.804;12.638;2022-08-01T08:02:39;3.40;;;2.90;;
11488;SDS011;5801;50.804;12.638;2022-08-01T08:05:05;4.78;;;3.10;;
11488;SDS011;5801;50.804;12.638;2022-08-01T08:07:32;2.60;;;2.40;;
11488;SDS011;5801;50.804;12.638;2022-08-01T08:09:58;4.35;;;2.25;;
11488;SDS011;5801;50.804;12.638;2022-08-01T08:12:24;6.72;;;2.30;;
11488;SDS011;5801;50.804;12.638;2022-08-01T08:14:50;7.38;;;1.92;;
11488;SDS011;5801;50.804;12.638;2022-08-01T08:17:16;2.75;;;2.10;;
11488;SDS011;5801;50.804;12.638;2022-08-01T08:19:41;2.05;;;1.83;;
11488;SDS011;5801;50.804;12.638;2022-08-01T08:22:08;3.72;;;2.20;;
11488;SDS011;5801;50.804;12.638;2022-08-01T08:24:34;5.90;;;2.17;;
11488;SDS011;5801;50.804;12.638;2022-08-01T08:27:02;2.92;;;1.58;;
11488;SDS011;5801;50.804;12.638;2022-08-01T08:29:28;1.10;;;1.00;;
11488;SDS011;5801;50.804;12.638;2022-08-01T08:31:56;1.27;;;1.17;;
11488;SDS011;5801;50.804;12.638;2022-08-01T08:34:23;5.80;;;1.40;;
11488;SDS011;5801;50.804;12.638;2022-08-01T08:36:49;1.20;;;1.00;;
11488;SDS011;5801;50.804;12.638;2022-08-01T08:39:15;4.05;;;1.00;;
11488;SDS011;5801;50.804;12.638;2022-08-01T08:41:42;1.17;;;0.90;;
11488;SDS011;5801;50.804;12.638;2022-08-01T08:44:09;1.25;;;1.15;;
11488;SDS011;5801;50.804;12.638;2022-08-01T08:46:40;0.98;;;0.98;;
11488;SDS011;5801;50.804;12.638;2022-08-01T08:49:07;1.00;;;1.00;;
11488;SDS011;5801;50.804;12.638;2022-08-01T08:51:33;1.20;;;1.10;;
11488;SDS011;5801;50.804;12.638;2022-08-01T08:54:02;2.95;;;1.27;;
11488;SDS011;5801;50.804;12.638;2022-08-01T08:56:28;1.50;;;1.23;;
11488;SDS011;5801;50.804;12.638;2022-08-01T08:58:58;2.38;;;1.15;;
11488;SDS011;5801;50.804;12.638;2022-08-01T09:01:25;2.00;;;1.35;;
11488;SDS011;5801;50.804;12.638;2022-08-01T09:03:51;1.48;;;1.38;;
11488;SDS011;5801;50.804;12.638;2022-08-01T09:06:18;1.17;;;1.08;;
11488;SDS011;5801;50.804;12.638;2022-08-01T09:08:44;2.00;;;1.20;;
11488;SDS011;5801;50.804;12.638;2022-08-01T09:11:10;3.53;;;1.23;;
11488;SDS011;5801;50.804;12.638;2022-08-01T09:13:36;3.63;;;1.15;;
11488;SDS011;5801;50.804;12.638;2022-08-01T09:16:02;2.40;;;1.75;;
11488;SDS011;5801;50.804;12.638;2022-08-01T09:18:39;3.35;;;1.70;;
11488;SDS011;5801;50.804;12.638;2022-08-01T09:23:42;1.33;;;1.10;;
11488;SDS011;5801;50.804;12.638;2022-08-01T09:26:09;1.10;;;1.00;;
11488;SDS011;5801;50.804;12.638;2022-08-01T09:28:35;1.17;;;1.05;;
11488;SDS011;5801;50.804;12.638;2022-08-01T09:31:05;3.60;;;1.10;;
11488;SDS011;5801;50.804;12.638;2022-08-01T09:33:53;1.40;;;0.88;;
11488;SDS011;5801;50.804;12.638;2022-08-01T09:36:19;0.65;;;0.60;;
11488;SDS011;5801;50.804;12.638;2022-08-01T09:38:47;0.93;;;0.47;;
11488;SDS011;5801;50.804;12.638;2022-08-01T09:41:13;1.60;;;0.80;;
11488;SDS011;5801;50.804;12.638;2022-08-01T09:43:40;1.60;;;0.63;;
11488;SDS011;5801;50.804;12.638;2022-08-01T09:46:13;0.70;;;0.70;;
11488;SDS011;5801;50.804;12.638;2022-08-01T09:48:40;0.68;;;0.50;;
11488;SDS011;5801;50.804;12.638;2022-08-01T09:51:27;0.30;;;0.30;;
11488;SDS011;5801;50.804;12.638;2022-08-01T09:53:53;0.60;;;0.50;;
11488;SDS011;5801;50.804;12.638;2022-08-01T09:56:20;0.60;;;0.60;;
11488;SDS011;5801;50.804;12.638;2022-08-01T09:58:53;0.70;;;0.57;;
11488;SDS011;5801;50.804;12.638;2022-08-01T10:01:20;1.02;;;0.52;;
11488;SDS011;5801;50.804;12.638;2022-08-01T10:03:47;0.50;;;0.50;;
11488;SDS011;5801;50.804;12.638;2022-08-01T10:06:28;0.50;;;0.50;;
11488;SDS011;5801;50.804;12.638;2022-08-01T10:08:54;1.27;;;0.68;;
11488;SDS011;5801;50.804;12.638;2022-08-01T10:11:19;0.65;;;0.65;;
11488;SDS011;5801;50.804;12.638;2022-08-01T10:13:46;0.70;;;0.68;;
11488;SDS011;5801;50.804;12.638;2022-08-01T10:16:12;0.98;;;0.60;;
11488;SDS011;5801;50.804;12.638;2022-08-01T10:18:38;0.70;;;0.70;;
11488;SDS011;5801;50.804;12.638;2022-08-01T10:21:06;0.90;;;0.60;;
11488;SDS011;5801;50.804;12.638;2022-08-01T10:23:35;0.60;;;0.60;;
11488;SDS011;5801;50.804;12.638;2022-08-01T10:26:01;1.50;;;0.70;;
11488;SDS011;5801;50.804;12.638;2022-08-01T10:28:29;0.73;;;0.63;;
11488;SDS011;5801;50.804;12.638;2022-08-01T10:30:56;1.10;;;0.80;;
11488;SDS011;5801;50.804;12.638;2022-08-01T10:33:23;0.47;;;0.47;;
11488;SDS011;5801;50.804;12.638;2022-08-01T10:35:49;0.50;;;0.50;;
11488;SDS011;5801;50.804;12.638;2022-08-01T10:38:16;3.13;;;2.67;;
11488;SDS011;5801;50.804;12.638;2022-08-01T10:40:42;2.40;;;0.90;;
11488;SDS011;5801;50.804;12.638;2022-08-01T10:43:09;0.70;;;0.70;;
11488;SDS011;5801;50.804;12.638;2022-08-01T10:45:35;2.88;;;0.68;;
11488;SDS011;5801;50.804;12.638;2022-08-01T10:48:09;1.27;;;0.73;;
11488;SDS011;5801;50.804;12.638;2022-08-01T10:50:46;0.65;;;0.65;;
11488;SDS011;5801;50.804;12.638;2022-08-01T10:53:20;0.63;;;0.60;;
11488;SDS011;5801;50.804;12.638;2022-08-01T10:55:47;1.42;;;0.68;;
11488;SDS011;5801;50.804;12.638;2022-08-01T10:58:13;0.75;;;0.60;;
11488;SDS011;5801;50.804;12.638;2022-08-01T11:03:57;0.98;;;0.75;;
11488;SDS011;5801;50.804;12.638;2022-08-01T11:06:48;0.98;;;0.50;;
11488;SDS011;5801;50.804;12.638;2022-08-01T11:09:28;0.85;;;0.60;;
11488;SDS011;5801;50.804;12.638;2022-08-01T11:12:11;0.73;;;0.73;;
11488;SDS011;5801;50.804;12.638;2022-08-01T11:17:40;0.68;;;0.50;;
11488;SDS011;5801;50.804;12.638;2022-08-01T11:31:24;0.50;;;0.50;;
11488;SDS011;5801;50.804;12.638;2022-08-01T11:41:17;0.50;;;0.50;;
11488;SDS011;5801;50.804;12.638;2022-08-01T11:43:57;0.68;;;0.63;;
11488;SDS011;5801;50.804;12.638;2022-08-01T11:49:29;0.60;;;0.60;;
11488;SDS011;5801;50.804;12.638;2022-08-01T11:54:26;0.90;;;0.70;;
11488;SDS011;5801;50.804;12.638;2022-08-01T11:57:09;1.25;;;1.02;;
11488;SDS011;5801;50.804;12.638;2022-08-01T11:59:42;0.82;;;0.50;;
11488;SDS011;5801;50.804;12.638;2022-08-01T12:02:27;0.95;;;0.85;;
11488;SDS011;5801;50.804;12.638;2022-08-01T12:04:59;0.70;;;0.70;;
11488;SDS011;5801;50.804;12.638;2022-08-01T12:07:36;0.80;;;0.80;;
11488;SDS011;5801;50.804;12.638;2022-08-01T12:10:10;0.77;;;0.77;;
11488;SDS011;5801;50.804;12.638;2022-08-01T12:12:37;0.82;;;0.65;;
11488;SDS011;5801;50.804;12.638;2022-08-01T12:15:07;0.68;;;0.65;;
11488;SDS011;5801;50.804;12.638;2022-08-01T12:17:38;0.55;;;0.52;;
11488;SDS011;5801;50.804;12.638;2022-08-01T12:20:07;1.08;;;0.95;;
11488;SDS011;5801;50.804;12.638;2022-08-01T12:22:34;3.15;;;0.68;;
11488;SDS011;5801;50.804;12.638;2022-08-01T12:25:10;1.38;;;0.70;;
11488;SDS011;5801;50.804;12.638;2022-08-01T12:27:37;0.55;;;0.55;;
11488;SDS011;5801;50.804;12.638;2022-08-01T12:30:05;0.85;;;0.82;;
11488;SDS011;5801;50.804;12.638;2022-08-01T12:32:32;0.45;;;0.45;;
11488;SDS011;5801;50.804;12.638;2022-08-01T12:35:19;0.50;;;0.50;;
11488;SDS011;5801;50.804;12.638;2022-08-01T12:37:52;0.43;;;0.43;;
11488;SDS011;5801;50.804;12.638;2022-08-01T12:40:20;5.10;;;0.70;;
11488;SDS011;5801;50.804;12.638;2022-08-01T12:42:47;0.57;;;0.50;;
11488;SDS011;5801;50.804;12.638;2022-08-01T12:45:15;0.50;;;0.50;;
11488;SDS011;5801;50.804;12.638;2022-08-01T12:47:42;2.28;;;0.50;;
11488;SDS011;5801;50.804;12.638;2022-08-01T12:50:12;0.60;;;0.52;;
11488;SDS011;5801;50.804;12.638;2022-08-01T12:52:38;1.48;;;0.60;;
11488;SDS011;5801;50.804;12.638;2022-08-01T12:55:17;1.05;;;0.60;;
11488;SDS011;5801;50.804;12.638;2022-08-01T12:58:03;1.75;;;0.60;;
11488;SDS011;5801;50.804;12.638;2022-08-01T13:00:30;0.50;;;0.47;;
11488;SDS011;5801;50.804;12.638;2022-08-01T13:03:05;1.23;;;0.50;;
11488;SDS011;5801;50.804;12.638;2022-08-01T13:05:45;1.95;;;0.80;;
11488;SDS011;5801;50.804;12.638;2022-08-01T13:08:14;0.90;;;0.55;;
11488;SDS011;5801;50.804;12.638;2022-08-01T13:10:41;0.38;;;0.38;;
11488;SDS011;5801;50.804;12.638;2022-08-01T13:13:07;0.35;;;0.35;;
11488;SDS011;5801;50.804;12.638;2022-08-01T13:15:35;0.60;;;0.50;;
11488;SDS011;5801;50.804;12.638;2022-08-01T13:21:10;1.75;;;0.60;;
11488;SDS011;5801;50.804;12.638;2022-08-01T13:24:02;0.47;;;0.47;;
11488;SDS011;5801;50.804;12.638;2022-08-01T13:26:38;0.50;;;0.50;;
11488;SDS011;5801;50.804;12.638;2022-08-01T13:29:12;0.65;;;0.57;;
11488;SDS011;5801;50.804;12.638;2022-08-01T13:31:40;0.45;;;0.28;;
11488;SDS011;5801;50.804;12.638;2022-08-01T13:34:06;0.30;;;0.22;;
11488;SDS011;5801;50.804;12.638;2022-08-01T13:36:32;0.52;;;0.43;;
11488;SDS011;5801;50.804;12.638;2022-08-01T13:38:59;1.25;;;0.40;;
11488;SDS011;5801;50.804;12.638;2022-08-01T13:41:43;0.30;;;0.30;;
11488;SDS011;5801;50.804;12.638;2022-08-01T13:44:09;0.63;;;0.20;;
11488;SDS011;5801;50.804;12.638;2022-08-01T13:46:39;2.28;;;0.30;;
11488;SDS011;5801;50.804;12.638;2022-08-01T13:49:05;0.73;;;0.32;;
11488;SDS011;5801;50.804;12.638;2022-08-01T13:51:32;0.30;;;0.30;;
11488;SDS011;5801;50.804;12.638;2022-08-01T13:53:58;0.13;;;0.13;;
11488;SDS011;5801;50.804;12.638;2022-08-01T13:56:24;0.35;;;0.35;;
11488;SDS011;5801;50.804;12.638;2022-08-01T13:58:51;0.30;;;0.30;;
11488;SDS011;5801;50.804;12.638;2022-08-01T14:01:17;0.50;;;0.50;;
11488;SDS011;5801;50.804;12.638;2022-08-01T14:03:42;0.40;;;0.30;;
11488;SDS011;5801;50.804;12.638;2022-08-01T14:06:08;0.73;;;0.60;;
11488;SDS011;5801;50.804;12.638;2022-08-01T14:08:34;0.40;;;0.40;;
11488;SDS011;5801;50.804;12.638;2022-08-01T14:11:00;0.55;;;0.40;;
11488;SDS011;5801;50.804;12.638;2022-08-01T14:13:25;0.43;;;0.30;;
11488;SDS011;5801;50.804;12.638;2022-08-01T14:15:51;0.40;;;0.40;;
11488;SDS011;5801;50.804;12.638;2022-08-01T14:18:17;0.55;;;0.55;;
11488;SDS011;5801;50.804;12.638;2022-08-01T14:20:43;0.20;;;0.20;;
11488;SDS011;5801;50.804;12.638;2022-08-01T14:23:08;2.08;;;0.73;;
11488;SDS011;5801;50.804;12.638;2022-08-01T14:25:37;0.70;;;0.40;;
11488;SDS011;5801;50.804;12.638;2022-08-01T14:28:03;0.50;;;0.50;;
11488;SDS011;5801;50.804;12.638;2022-08-01T14:30:29;0.47;;;0.47;;
11488;SDS011;5801;50.804;12.638;2022-08-01T14:32:55;4.05;;;0.52;;
11488;SDS011;5801;50.804;12.638;2022-08-01T14:35:21;0.40;;;0.40;;
11488;SDS011;5801;50.804;12.638;2022-08-01T14:37:47;0.40;;;0.40;;
11488;SDS011;5801;50.804;12.638;2022-08-01T14:40:12;0.40;;;0.40;;
11488;SDS011;5801;50.804;12.638;2022-08-01T14:42:38;2.80;;;0.45;;
11488;SDS011;5801;50.804;12.638;2022-08-01T14:45:05;0.75;;;0.50;;
11488;SDS011;5801;50.804;12.638;2022-08-01T14:47:37;0.70;;;0.32;;
11488;SDS011;5801;50.804;12.638;2022-08-01T14:50:06;0.30;;;0.30;;
11488;SDS011;5801;50.804;12.638;2022-08-01T14:52:34;0.60;;;0.60;;
11488;SDS011;5801;50.804;12.638;2022-08-01T14:55:00;0.50;;;0.50;;
11488;SDS011;5801;50.804;12.638;2022-08-01T14:57:27;0.50;;;0.50;;
11488;SDS011;5801;50.804;12.638;2022-08-01T14:59:52;0.80;;;0.40;;
11488;SDS011;5801;50.804;12.638;2022-08-01T15:02:18;1.85;;;0.47;;
11488;SDS011;5801;50.804;12.638;2022-08-01T15:04:44;0.95;;;0.43;;
11488;SDS011;5801;50.804;12.638;2022-08-01T15:07:10;0.50;;;0.50;;
11488;SDS011;5801;50.804;12.638;2022-08-01T15:09:37;0.85;;;0.50;;
11488;SDS011;5801;50.804;12.638;2022-08-01T15:12:03;0.80;;;0.60;;
11488;SDS011;5801;50.804;12.638;2022-08-01T15:14:29;0.60;;;0.50;;
11488;SDS011;5801;50.804;12.638;2022-08-01T15:17:20;0.38;;;0.38;;
11488;SDS011;5801;50.804;12.638;2022-08-01T15:19:53;0.20;;;0.20;;
11488;SDS011;5801;50.804;12.638;2022-08-01T15:22:20;0.55;;;0.55;;
11488;SDS011;5801;50.804;12.638;2022-08-01T15:24:46;0.77;;;0.35;;
11488;SDS011;5801;50.804;12.638;2022-08-01T15:27:12;0.40;;;0.40;;
11488;SDS011;5801;50.804;12.638;2022-08-01T15:29:38;0.60;;;0.50;;
11488;SDS011;5801;50.804;12.638;2022-08-01T15:32:05;1.65;;;0.60;;
11488;SDS011;5801;50.804;12.638;2022-08-01T15:34:31;0.50;;;0.50;;
11488;SDS011;5801;50.804;12.638;2022-08-01T15:37:01;1.98;;;0.57;;
11488;SDS011;5801;50.804;12.638;2022-08-01T15:39:27;1.17;;;0.60;;
11488;SDS011;5801;50.804;12.638;2022-08-01T15:41:52;0.50;;;0.50;;
11488;SDS011;5801;50.804;12.638;2022-08-01T15:44:18;0.60;;;0.60;;